Time;durP1;ratioP1;P1;durP2;ratioP2;P2;SDS_P1;SDS_P2;PMS_P1;PMS_P2;Temp;Humidity;BMP_temperature;BMP_pressure;BME280_temperature;BME280_humidity;BME280_pressure;Samples;Min_cycle;Max_cycle;Signal;HPM_P1;HPM_P2
2022/03/23 00:01:58;;;;;;;2.05;1.95;;;18.30;60.70;;;;;;4991626;28;20463;-14
2022/03/23 00:04:24;;;;;;;2.20;2.10;;;18.30;60.60;;;;;;4985915;28;20548;-14
2022/03/23 00:06:49;;;;;;;2.60;2.40;;;18.40;60.60;;;;;;4991401;28;20062;-13
2022/03/23 00:09:15;;;;;;;2.28;2.17;;;18.40;60.60;;;;;;4987330;28;20466;-14
2022/03/23 00:11:41;;;;;;;2.10;2.00;;;18.40;60.60;;;;;;4991791;28;20042;-14
2022/03/23 00:14:07;;;;;;;2.38;2.28;;;18.40;60.70;;;;;;4991802;28;20050;-13
2022/03/23 00:16:37;;;;;;;2.25;2.15;;;18.30;60.60;;;;;;4990692;28;20121;-13
2022/03/23 00:19:04;;;;;;;2.08;1.98;;;18.30;60.60;;;;;;4990805;28;20046;-13
2022/03/23 00:21:30;;;;;;;2.05;1.95;;;18.30;60.50;;;;;;4986281;28;20042;-12
2022/03/23 00:23:55;;;;;;;2.13;2.03;;;18.40;60.60;;;;;;4988818;28;20129;-13
2022/03/23 00:26:21;;;;;;;2.28;2.17;;;18.30;60.60;;;;;;4990192;28;20054;-15
2022/03/23 00:28:48;;;;;;;2.22;2.13;;;18.30;60.60;;;;;;4991946;28;20105;-13
2022/03/23 00:31:14;;;;;;;1.98;1.88;;;18.30;60.50;;;;;;4992696;28;20050;-13
2022/03/23 00:33:40;;;;;;;2.28;2.17;;;18.30;60.50;;;;;;4975678;28;20056;-13
2022/03/23 00:36:06;;;;;;;2.00;1.90;;;18.30;60.60;;;;;;4974950;28;20125;-13
2022/03/23 00:38:32;;;;;;;2.30;2.20;;;18.30;60.50;;;;;;4986901;28;20415;-13
2022/03/23 00:40:58;;;;;;;2.20;2.10;;;18.30;60.50;;;;;;4986269;28;20072;-13
2022/03/23 00:43:23;;;;;;;2.35;2.25;;;18.30;60.60;;;;;;4991041;28;20050;-13
2022/03/23 00:45:49;;;;;;;1.83;1.73;;;18.30;60.60;;;;;;4977702;28;20051;-13
2022/03/23 00:48:14;;;;;;;2.35;2.25;;;18.30;60.60;;;;;;4975914;28;20054;-14
2022/03/23 00:50:40;;;;;;;2.30;2.20;;;18.30;60.60;;;;;;4991407;28;20064;-12
2022/03/23 00:53:06;;;;;;;2.28;2.17;;;18.30;60.60;;;;;;4988407;28;20057;-14
2022/03/23 00:55:32;;;;;;;2.47;2.38;;;18.30;60.70;;;;;;4982376;28;20138;-13
2022/03/23 00:57:58;;;;;;;2.30;2.20;;;18.30;60.70;;;;;;4972808;28;20130;-14
2022/03/23 01:00:23;;;;;;;2.30;2.20;;;18.30;60.60;;;;;;4983449;28;20053;-15
2022/03/23 01:02:49;;;;;;;2.33;2.22;;;18.30;60.60;;;;;;4991501;28;20062;-13
2022/03/23 01:05:15;;;;;;;2.35;2.25;;;18.20;60.70;;;;;;4979704;28;20050;-13
2022/03/23 01:07:41;;;;;;;2.25;2.15;;;18.20;60.80;;;;;;4973112;28;20077;-13
2022/03/23 01:10:13;;;;;;;1.83;1.73;;;18.20;60.80;;;;;;4971680;28;20047;-13
2022/03/23 01:12:39;;;;;;;2.40;2.30;;;18.20;60.70;;;;;;4981360;28;20042;-13
2022/03/23 01:15:06;;;;;;;2.35;2.25;;;18.30;60.70;;;;;;4984867;28;20508;-13
2022/03/23 01:17:32;;;;;;;1.92;1.83;;;18.20;60.60;;;;;;4985363;28;20331;-13
2022/03/23 01:19:58;;;;;;;2.20;2.10;;;18.30;60.60;;;;;;4982580;28;20061;-12
2022/03/23 01:22:24;;;;;;;2.00;1.90;;;18.20;60.60;;;;;;4972153;28;20097;-14
2022/03/23 01:24:49;;;;;;;2.08;1.98;;;18.20;60.70;;;;;;4971934;28;20050;-14
2022/03/23 01:27:15;;;;;;;1.83;1.73;;;18.20;60.60;;;;;;4987261;28;20149;-14
2022/03/23 01:29:40;;;;;;;2.00;1.90;;;18.20;60.60;;;;;;4990859;28;20042;-14
2022/03/23 01:32:08;;;;;;;2.00;1.90;;;18.20;60.50;;;;;;4989419;28;20316;-13
2022/03/23 01:34:33;;;;;;;1.80;1.70;;;18.30;60.50;;;;;;4991347;28;20038;-14
2022/03/23 01:36:59;;;;;;;2.05;1.95;;;18.20;61.30;;;;;;4995365;28;20047;-13
2022/03/23 01:39:25;;;;;;;1.83;1.73;;;18.20;60.40;;;;;;4995463;28;20476;-12
2022/03/23 01:41:50;;;;;;;2.10;2.00;;;18.20;60.60;;;;;;4994872;28;20045;-13
2022/03/23 01:44:20;;;;;;;2.00;1.90;;;18.20;60.50;;;;;;4993883;28;20053;-13
2022/03/23 01:47:18;;;;;;;2.15;1.95;;;18.20;60.40;;;;;;4989625;28;20133;-13
2022/03/23 01:49:49;;;;;;;1.90;1.80;;;18.20;60.30;;;;;;4986268;28;20046;-13
2022/03/23 01:52:16;;;;;;;1.90;1.80;;;18.20;60.40;;;;;;4995019;28;20042;-14
2022/03/23 01:54:42;;;;;;;1.95;1.85;;;18.20;60.40;;;;;;4993593;28;20047;-14
2022/03/23 01:57:09;;;;;;;2.00;1.90;;;18.20;60.40;;;;;;4995365;28;20101;-13
2022/03/23 01:59:34;;;;;;;1.95;1.85;;;18.20;60.40;;;;;;4983539;28;20047;-14
2022/03/23 02:02:00;;;;;;;2.10;2.00;;;18.20;60.30;;;;;;4988667;28;20046;-14
2022/03/23 02:04:26;;;;;;;1.80;1.70;;;18.20;60.30;;;;;;4992746;28;20113;-14
2022/03/23 02:06:52;;;;;;;1.95;1.85;;;18.20;60.40;;;;;;4993371;28;20042;-13
2022/03/23 02:09:18;;;;;;;1.95;1.85;;;18.20;60.30;;;;;;4981313;28;20046;-13
2022/03/23 02:11:44;;;;;;;1.95;1.85;;;18.20;60.30;;;;;;4993399;28;20503;-13
2022/03/23 02:14:10;;;;;;;1.77;1.67;;;18.10;60.20;;;;;;4995311;28;20111;-14
2022/03/23 02:16:39;;;;;;;2.30;2.13;;;18.20;60.30;;;;;;4988071;28;20102;-13
2022/03/23 02:19:04;;;;;;;2.45;2.25;;;18.20;60.30;;;;;;4996653;28;20181;-13
2022/03/23 02:21:30;;;;;;;2.17;2.08;;;18.20;60.30;;;;;;4987491;28;20098;-13
2022/03/23 02:23:55;;;;;;;2.10;2.00;;;18.20;60.30;;;;;;4996628;28;20042;-13
2022/03/23 02:26:21;;;;;;;1.80;1.70;;;18.20;60.30;;;;;;4998398;28;20038;-13
2022/03/23 02:28:47;;;;;;;1.95;1.85;;;18.10;60.20;;;;;;4995898;28;20052;-13
2022/03/23 02:31:12;;;;;;;2.33;2.22;;;18.20;60.10;;;;;;4998530;28;20042;-14
2022/03/23 02:33:38;;;;;;;2.00;1.90;;;18.20;60.10;;;;;;4996409;28;20073;-14
2022/03/23 02:36:05;;;;;;;2.17;2.08;;;18.10;60.10;;;;;;4997864;28;20134;-14
2022/03/23 02:38:30;;;;;;;8.48;2.10;;;18.10;60.20;;;;;;4997498;28;20116;-13
2022/03/23 02:40:56;;;;;;;1.85;1.75;;;18.10;60.30;;;;;;4998263;28;20046;-13
2022/03/23 02:43:21;;;;;;;1.90;1.80;;;18.10;60.20;;;;;;4992734;28;20050;-12
2022/03/23 02:45:47;;;;;;;1.90;1.80;;;18.10;60.10;;;;;;4979795;28;20043;-12
2022/03/23 02:48:13;;;;;;;2.00;1.90;;;18.10;60.10;;;;;;4995387;28;20077;-13
2022/03/23 02:50:39;;;;;;;2.10;2.00;;;18.00;60.20;;;;;;4990060;28;20058;-14
2022/03/23 03:01:52;;;;;;;2.00;1.90;;;18.00;60.20;;;;;;4987676;28;19988;-14
2022/03/23 03:04:19;;;;;;;2.00;1.90;;;18.00;60.30;;;;;;4985138;28;20049;-13
2022/03/23 03:06:45;;;;;;;2.00;1.90;;;18.00;60.10;;;;;;4985466;28;20042;-12
2022/03/23 03:09:12;;;;;;;1.83;1.73;;;18.00;60.20;;;;;;4987793;28;20100;-14
2022/03/23 03:11:38;;;;;;;1.90;1.80;;;18.00;60.20;;;;;;4992103;28;20133;-13
2022/03/23 03:14:03;;;;;;;2.00;1.90;;;18.00;60.10;;;;;;4988587;28;20080;-13
2022/03/23 03:16:29;;;;;;;1.95;1.85;;;18.00;60.20;;;;;;4995224;28;20522;-14
2022/03/23 03:18:55;;;;;;;1.88;1.77;;;18.00;60.30;;;;;;4990007;28;20581;-13
2022/03/23 03:21:20;;;;;;;1.70;1.60;;;18.00;60.30;;;;;;4997540;28;20050;-14
2022/03/23 03:23:46;;;;;;;1.80;1.70;;;18.00;60.30;;;;;;4989730;28;20553;-13
2022/03/23 03:26:12;;;;;;;1.63;1.52;;;17.90;60.30;;;;;;4978071;28;20097;-13
2022/03/23 03:28:38;;;;;;;1.90;1.80;;;18.00;60.30;;;;;;4982727;28;20041;-13
2022/03/23 03:31:05;;;;;;;1.83;1.73;;;18.00;60.40;;;;;;4997463;28;20053;-14
2022/03/23 03:33:31;;;;;;;1.90;1.80;;;18.00;60.30;;;;;;4996099;28;20050;-13
2022/03/23 03:35:56;;;;;;;1.88;1.77;;;18.00;60.40;;;;;;4996586;28;20054;-13
2022/03/23 03:38:22;;;;;;;2.10;2.00;;;17.90;60.40;;;;;;4996523;28;20325;-13
2022/03/23 03:40:48;;;;;;;1.88;1.77;;;18.00;60.40;;;;;;4982579;28;20570;-13
2022/03/23 03:43:15;;;;;;;2.08;1.98;;;18.00;60.30;;;;;;4977704;28;20049;-13
2022/03/23 03:45:42;;;;;;;1.60;1.50;;;18.00;60.40;;;;;;4993031;28;20120;-13
2022/03/23 03:48:07;;;;;;;2.10;1.90;;;17.90;60.30;;;;;;4996380;28;20137;-14
2022/03/23 03:50:34;;;;;;;1.33;1.33;;;17.90;60.30;;;;;;4995625;28;20050;-14
2022/03/23 03:53:00;;;;;;;1.83;1.73;;;17.90;60.30;;;;;;4990737;28;20078;-13
2022/03/23 03:55:26;;;;;;;1.50;1.50;;;17.90;60.40;;;;;;4992076;28;20058;-14
2022/03/23 03:57:51;;;;;;;1.88;1.77;;;17.90;60.40;;;;;;4995847;28;20038;-14
2022/03/23 04:00:17;;;;;;;1.80;1.60;;;17.90;60.40;;;;;;4996151;28;20058;-13
2022/03/23 04:02:43;;;;;;;1.50;1.50;;;17.90;60.40;;;;;;4995798;28;20049;-13
2022/03/23 04:05:09;;;;;;;1.77;1.67;;;17.90;60.40;;;;;;4995472;28;20130;-12
2022/03/23 04:07:34;;;;;;;1.60;1.50;;;17.90;60.40;;;;;;4996502;28;20581;-12
2022/03/23 04:10:03;;;;;;;2.00;1.90;;;17.90;60.40;;;;;;4995630;28;20519;-13
2022/03/23 04:12:29;;;;;;;1.80;1.70;;;17.90;60.40;;;;;;4996464;28;20046;-12
2022/03/23 04:14:55;;;;;;;1.80;1.70;;;17.90;60.40;;;;;;4995415;28;20054;-13
2022/03/23 04:17:20;;;;;;;1.88;1.77;;;17.90;60.50;;;;;;4996530;28;20437;-14
2022/03/23 04:19:46;;;;;;;2.08;1.50;;;17.90;60.50;;;;;;4988842;28;20058;-14
2022/03/23 04:22:12;;;;;;;2.03;1.92;;;17.90;60.50;;;;;;4993900;28;20071;-14
2022/03/23 04:24:38;;;;;;;1.50;1.50;;;17.90;60.50;;;;;;4995856;28;20042;-13
2022/03/23 04:27:04;;;;;;;1.98;1.88;;;17.80;60.40;;;;;;4995905;28;20189;-15
2022/03/23 04:29:29;;;;;;;1.88;1.77;;;17.90;60.50;;;;;;4995832;28;20061;-15
2022/03/23 04:31:55;;;;;;;1.75;1.65;;;17.80;60.40;;;;;;4995621;28;20475;-14
2022/03/23 04:34:21;;;;;;;1.80;1.70;;;17.80;60.50;;;;;;4995016;28;20129;-13
2022/03/23 04:36:46;;;;;;;1.70;1.60;;;17.80;60.50;;;;;;4995423;28;20057;-13
2022/03/23 04:39:12;;;;;;;1.90;1.80;;;17.80;60.50;;;;;;4996267;28;20042;-13
2022/03/23 04:41:37;;;;;;;1.95;1.85;;;17.80;60.50;;;;;;4995151;28;20044;-13
2022/03/23 04:44:03;;;;;;;1.80;1.70;;;17.80;61.30;;;;;;4996187;28;20038;-13
2022/03/23 04:46:29;;;;;;;1.88;1.77;;;17.80;60.50;;;;;;4996183;28;20042;-13
2022/03/23 04:48:54;;;;;;;1.50;1.40;;;17.80;60.40;;;;;;4994581;28;20049;-12
2022/03/23 04:51:20;;;;;;;1.70;1.70;;;17.80;60.50;;;;;;4996066;28;20092;-12
2022/03/23 04:53:46;;;;;;;1.90;1.80;;;17.80;60.50;;;;;;4995416;28;20129;-13
2022/03/23 04:56:12;;;;;;;1.55;1.55;;;17.80;60.50;;;;;;4996137;28;20038;-13
2022/03/23 04:58:37;;;;;;;1.85;1.75;;;17.80;60.50;;;;;;4994732;28;20567;-12
2022/03/23 05:01:03;;;;;;;1.98;1.88;;;17.80;60.60;;;;;;4996001;28;20038;-13
2022/03/23 05:03:29;;;;;;;1.73;1.63;;;17.80;60.50;;;;;;4995772;28;20056;-12
2022/03/23 05:05:55;;;;;;;2.15;2.05;;;17.80;60.50;;;;;;4995420;28;20046;-13
2022/03/23 05:08:21;;;;;;;1.80;1.70;;;17.80;60.50;;;;;;4995105;28;20050;-12
2022/03/23 05:10:47;;;;;;;1.90;1.80;;;17.80;60.50;;;;;;4998725;28;20051;-12
2022/03/23 05:13:12;;;;;;;1.70;1.60;;;17.80;60.40;;;;;;4999319;28;20062;-13
2022/03/23 05:15:38;;;;;;;1.60;1.60;;;17.80;60.40;;;;;;4999451;28;20042;-14
2022/03/23 05:18:04;;;;;;;2.03;1.92;;;17.80;60.50;;;;;;4999810;28;20418;-13
2022/03/23 05:20:30;;;;;;;1.42;1.33;;;17.80;60.50;;;;;;4998843;28;20046;-13
2022/03/23 05:22:56;;;;;;;1.90;1.80;;;17.70;60.50;;;;;;4999140;28;20043;-13
2022/03/23 05:25:22;;;;;;;1.67;1.67;;;17.70;60.50;;;;;;4999751;28;20050;-12
2022/03/23 05:27:48;;;;;;;1.67;1.60;;;17.70;60.40;;;;;;4998469;28;20069;-14
2022/03/23 05:30:14;;;;;;;2.10;2.00;;;17.70;60.50;;;;;;4993015;28;20046;-15
2022/03/23 05:32:40;;;;;;;2.10;2.00;;;17.70;60.40;;;;;;4996271;28;20129;-13
2022/03/23 05:35:08;;;;;;;1.65;1.65;;;17.70;60.50;;;;;;4998053;28;20069;-14
2022/03/23 05:37:33;;;;;;;1.95;1.85;;;17.70;60.60;;;;;;4999491;28;20472;-13
2022/03/23 05:39:59;;;;;;;1.83;1.73;;;17.70;60.60;;;;;;4993856;28;20045;-13
2022/03/23 05:42:24;;;;;;;1.88;1.77;;;17.70;60.60;;;;;;4980043;28;20045;-13
2022/03/23 05:44:50;;;;;;;1.73;1.65;;;17.70;60.50;;;;;;4979414;28;20117;-14
2022/03/23 05:47:15;;;;;;;1.63;1.63;;;17.70;60.60;;;;;;4979842;28;20047;-13
2022/03/23 05:49:41;;;;;;;1.80;1.70;;;17.70;60.50;;;;;;4988214;28;20054;-13
2022/03/23 05:52:07;;;;;;;2.00;1.90;;;17.70;60.50;;;;;;4997691;28;20058;-13
2022/03/23 05:54:33;;;;;;;1.73;1.70;;;17.70;60.60;;;;;;4994837;28;20042;-15
2022/03/23 05:57:02;;;;;;;2.28;2.08;;;17.70;60.60;;;;;;4997152;28;20530;-13
2022/03/23 05:59:28;;;;;;;1.88;1.77;;;17.70;60.60;;;;;;4997405;28;20458;-14
2022/03/23 06:01:54;;;;;;;2.13;2.03;;;17.70;60.60;;;;;;4996358;28;20066;-15
2022/03/23 06:04:19;;;;;;;1.95;1.85;;;17.70;60.50;;;;;;4994512;28;20159;-12
2022/03/23 06:06:45;;;;;;;1.70;1.60;;;17.70;60.60;;;;;;4997185;28;20038;-12
2022/03/23 06:09:12;;;;;;;1.80;1.70;;;17.70;60.70;;;;;;4987782;28;20051;-13
2022/03/23 06:11:38;;;;;;;1.80;1.70;;;17.70;63.30;;;;;;4994472;28;20499;-12
2022/03/23 06:14:04;;;;;;;2.25;1.38;;;17.70;63.70;;;;;;4998173;28;20050;-13
2022/03/23 06:16:30;;;;;;;3.05;1.60;;;17.70;63.80;;;;;;4997905;28;20077;-15
2022/03/23 06:18:55;;;;;;;1.45;1.45;;;17.70;63.60;;;;;;4990463;28;20050;-15
2022/03/23 06:21:21;;;;;;;2.45;1.70;;;17.70;63.60;;;;;;4996868;28;20042;-15
2022/03/23 06:23:47;;;;;;;1.73;1.63;;;17.70;62.90;;;;;;4994614;28;20050;-15
2022/03/23 06:26:12;;;;;;;1.90;1.80;;;17.70;62.40;;;;;;4992955;28;20058;-15
2022/03/23 06:28:38;;;;;;;2.63;1.90;;;17.70;62.80;;;;;;4994197;28;20054;-15
2022/03/23 06:31:04;;;;;;;2.40;1.70;;;17.80;62.20;;;;;;4993850;28;20054;-15
2022/03/23 06:33:29;;;;;;;2.05;1.95;;;17.70;62.40;;;;;;4993466;28;20049;-13
2022/03/23 06:35:55;;;;;;;3.90;1.65;;;17.70;62.30;;;;;;4990783;28;20051;-14
2022/03/23 06:38:21;;;;;;;1.70;1.58;;;17.70;62.20;;;;;;4996737;28;20049;-14
2022/03/23 06:40:46;;;;;;;2.10;1.92;;;17.70;61.80;;;;;;4994466;28;20047;-14
2022/03/23 06:43:12;;;;;;;2.55;1.77;;;17.70;62.40;;;;;;4996614;28;20047;-15
2022/03/23 06:45:40;;;;;;;11.95;2.63;;;17.70;63.80;;;;;;4997564;28;20046;-13
2022/03/23 06:48:05;;;;;;;6.18;2.17;;;17.70;63.70;;;;;;4996106;28;20042;-14
2022/03/23 06:50:31;;;;;;;2.85;2.30;;;17.70;63.80;;;;;;4995504;28;20056;-14
2022/03/23 06:52:57;;;;;;;7.72;3.08;;;17.70;64.20;;;;;;4996908;28;20129;-15
2022/03/23 06:55:22;;;;;;;5.70;2.40;;;17.70;64.20;;;;;;4998129;28;20046;-14
2022/03/23 06:57:48;;;;;;;6.25;2.63;;;17.80;64.30;;;;;;4996773;28;20454;-15
2022/03/23 07:00:14;;;;;;;5.97;2.28;;;17.80;64.20;;;;;;4998036;28;20043;-15
2022/03/23 07:02:43;;;;;;;4.40;1.70;;;17.80;64.20;;;;;;4996910;28;20038;-14
2022/03/23 07:05:09;;;;;;;3.15;2.45;;;17.70;64.20;;;;;;4996151;28;20133;-14
2022/03/23 07:07:38;;;;;;;4.90;2.28;;;17.70;63.90;;;;;;4997631;28;20038;-14
2022/03/23 07:10:04;;;;;;;5.85;2.28;;;17.80;63.60;;;;;;4996719;28;20542;-14
2022/03/23 07:12:30;;;;;;;5.00;2.22;;;17.80;63.70;;;;;;4988064;28;20034;-14
2022/03/23 07:14:55;;;;;;;3.88;2.10;;;17.80;63.60;;;;;;4979785;28;20041;-15
2022/03/23 07:17:21;;;;;;;6.65;2.53;;;17.80;63.30;;;;;;4983530;28;20047;-14
2022/03/23 07:19:47;;;;;;;3.05;1.95;;;17.80;63.20;;;;;;4982024;28;20510;-14
2022/03/23 07:22:14;;;;;;;2.25;1.98;;;17.80;63.20;;;;;;4981221;28;20056;-14
2022/03/23 07:24:39;;;;;;;2.15;2.00;;;17.80;63.20;;;;;;4981324;28;20505;-14
2022/03/23 07:27:05;;;;;;;2.30;2.10;;;17.80;63.20;;;;;;4981306;28;20129;-14
2022/03/23 07:29:30;;;;;;;4.38;2.00;;;17.80;63.10;;;;;;4982289;28;20046;-14
2022/03/23 07:31:57;;;;;;;4.97;2.58;;;17.80;63.10;;;;;;4980816;28;20046;-14
2022/03/23 07:34:23;;;;;;;3.53;2.28;;;17.80;63.30;;;;;;4979778;28;20054;-14
2022/03/23 07:36:49;;;;;;;2.25;2.05;;;17.80;63.10;;;;;;4981871;28;20057;-15
2022/03/23 07:39:20;;;;;;;2.30;2.10;;;17.80;62.90;;;;;;4981542;28;20051;-14
2022/03/23 07:41:50;;;;;;;2.45;2.05;;;17.80;62.80;;;;;;4981218;28;20062;-17
2022/03/23 07:44:18;;;;;;;2.40;2.20;;;17.90;62.80;;;;;;4980727;28;20080;-15
2022/03/23 07:46:47;;;;;;;3.63;2.00;;;17.90;62.70;;;;;;4982371;28;20108;-14
2022/03/23 07:49:13;;;;;;;2.40;2.17;;;17.90;62.70;;;;;;4980561;28;20474;-14
2022/03/23 07:51:39;;;;;;;2.15;1.95;;;17.90;62.70;;;;;;4981409;28;20897;-13
2022/03/23 07:54:05;;;;;;;4.22;2.35;;;17.90;62.30;;;;;;4980342;28;20049;-14
2022/03/23 07:56:31;;;;;;;2.22;2.00;;;17.90;62.50;;;;;;4982737;28;20499;-14
2022/03/23 07:58:58;;;;;;;3.58;2.30;;;17.90;62.40;;;;;;4980591;28;20723;-14
2022/03/23 08:01:23;;;;;;;2.47;2.10;;;17.90;62.30;;;;;;4982718;28;20136;-14
2022/03/23 08:03:49;;;;;;;2.40;2.20;;;18.00;62.30;;;;;;4976665;28;20054;-16
2022/03/23 08:06:15;;;;;;;1.73;1.63;;;18.00;62.20;;;;;;4980480;28;20057;-13
2022/03/23 08:08:40;;;;;;;2.35;2.10;;;17.90;62.10;;;;;;4982167;28;20058;-14
2022/03/23 08:11:06;;;;;;;2.80;2.30;;;18.00;62.30;;;;;;4981827;28;20787;-15
2022/03/23 08:13:32;;;;;;;2.03;1.92;;;18.00;62.20;;;;;;4981061;28;20547;-14
2022/03/23 08:15:58;;;;;;;2.00;1.80;;;17.90;62.00;;;;;;4981664;28;20058;-13
2022/03/23 08:18:24;;;;;;;3.92;2.25;;;18.00;62.10;;;;;;4982155;28;20484;-14
2022/03/23 08:20:50;;;;;;;1.80;1.70;;;18.00;62.10;;;;;;4980826;28;20058;-14
2022/03/23 08:23:15;;;;;;;3.00;2.10;;;18.00;61.30;;;;;;4979411;28;20050;-13
2022/03/23 08:25:42;;;;;;;1.70;1.60;;;18.10;61.50;;;;;;4981686;28;20046;-14
2022/03/23 08:28:08;;;;;;;2.45;2.10;;;18.10;61.80;;;;;;4979746;28;20046;-14
2022/03/23 08:30:33;;;;;;;4.20;1.92;;;18.00;61.70;;;;;;4979871;28;20503;-14
2022/03/23 08:32:59;;;;;;;2.63;1.77;;;18.10;61.60;;;;;;4979034;28;20049;-13
2022/03/23 08:35:25;;;;;;;1.80;1.70;;;18.10;61.50;;;;;;4961748;28;20050;-13
2022/03/23 08:37:51;;;;;;;1.80;1.70;;;18.10;61.50;;;;;;4981088;28;20050;-13
2022/03/23 08:40:16;;;;;;;1.95;1.85;;;18.10;61.40;;;;;;4980106;28;20054;-14
2022/03/23 08:42:42;;;;;;;1.80;1.67;;;18.10;61.30;;;;;;4980898;28;20142;-14
2022/03/23 08:45:09;;;;;;;1.77;1.45;;;18.10;61.30;;;;;;4979346;28;20399;-14
2022/03/23 08:47:35;;;;;;;1.60;1.50;;;18.10;61.20;;;;;;4981587;28;20766;-13
2022/03/23 08:50:01;;;;;;;2.10;2.00;;;18.20;61.00;;;;;;4980179;28;20054;-14
2022/03/23 08:52:29;;;;;;;1.80;1.70;;;18.20;60.80;;;;;;4981463;28;20052;-14
2022/03/23 08:54:54;;;;;;;1.80;1.70;;;18.20;60.70;;;;;;4977903;28;20304;-15
2022/03/23 08:57:22;;;;;;;1.52;1.42;;;18.20;60.70;;;;;;4980185;28;20324;-14
2022/03/23 08:59:48;;;;;;;2.10;1.90;;;18.20;60.30;;;;;;4981429;28;20144;-14
2022/03/23 09:02:14;;;;;;;1.70;1.60;;;18.30;59.80;;;;;;4979996;28;20058;-14
2022/03/23 09:04:39;;;;;;;2.75;1.90;;;18.30;59.50;;;;;;4977584;28;20043;-13
2022/03/23 09:07:05;;;;;;;1.88;1.77;;;18.30;59.20;;;;;;4980613;28;20046;-14
2022/03/23 09:09:30;;;;;;;1.90;1.80;;;18.30;59.40;;;;;;4980837;28;20151;-13
2022/03/23 09:11:56;;;;;;;1.90;1.80;;;18.40;59.20;;;;;;4980604;28;20136;-14
2022/03/23 09:14:22;;;;;;;2.38;2.05;;;18.40;59.30;;;;;;4978645;28;20058;-15
2022/03/23 09:16:47;;;;;;;1.95;1.80;;;18.40;59.10;;;;;;4980385;28;20054;-13
2022/03/23 09:19:19;;;;;;;1.83;1.73;;;18.40;59.30;;;;;;4980005;28;20531;-13
2022/03/23 09:21:48;;;;;;;2.65;1.77;;;18.40;59.60;;;;;;4981112;28;20050;-14
2022/03/23 09:24:15;;;;;;;2.08;1.65;;;18.40;59.50;;;;;;4978367;28;20058;-13
2022/03/23 09:26:41;;;;;;;5.00;1.80;;;18.50;59.50;;;;;;4980567;28;20101;-13
2022/03/23 09:29:07;;;;;;;2.35;1.60;;;18.50;59.30;;;;;;4980454;28;20073;-13
2022/03/23 09:31:36;;;;;;;1.55;1.50;;;18.50;59.20;;;;;;4981410;28;20051;-13
2022/03/23 09:34:05;;;;;;;1.70;1.60;;;18.60;59.60;;;;;;4977858;28;20058;-15
2022/03/23 09:39:16;;;;;;;1.63;1.52;;;18.60;59.10;;;;;;4979756;28;20141;-14
2022/03/23 09:41:43;;;;;;;1.60;1.50;;;18.60;59.00;;;;;;4980967;28;20145;-14
2022/03/23 09:44:09;;;;;;;1.98;1.70;;;18.70;59.00;;;;;;4976712;28;20057;-14
2022/03/23 09:46:35;;;;;;;1.85;1.70;;;18.60;58.80;;;;;;4980436;28;20046;-13
2022/03/23 09:49:01;;;;;;;2.25;1.70;;;18.70;58.70;;;;;;4980108;28;20060;-13
2022/03/23 09:51:26;;;;;;;2.58;1.85;;;18.70;58.60;;;;;;4980175;28;20042;-14
2022/03/23 09:53:53;;;;;;;1.77;1.67;;;18.70;58.50;;;;;;4977236;28;20066;-13
2022/03/23 09:56:18;;;;;;;1.52;1.42;;;18.80;58.40;;;;;;4982417;28;20046;-14
2022/03/23 09:58:44;;;;;;;2.00;1.90;;;18.80;58.30;;;;;;4984860;28;20054;-14
2022/03/23 10:01:29;;;;;;;1.55;1.45;;;18.80;58.30;;;;;;4983474;28;20530;-15
2022/03/23 10:04:12;;;;;;;1.50;1.40;;;18.80;58.30;;;;;;4981800;28;20054;-15
2022/03/23 10:07:12;;;;;;;1.23;1.20;;;18.80;58.20;;;;;;4984214;28;20104;-14
2022/03/23 10:10:16;;;;;;;1.75;1.65;;;18.80;58.10;;;;;;4983858;28;20285;-14
2022/03/23 10:13:19;;;;;;;1.38;1.38;;;18.90;58.00;;;;;;4983160;28;20543;-14
2022/03/23 10:16:12;;;;;;;1.52;1.42;;;18.90;58.20;;;;;;4983198;28;20054;-15
2022/03/23 10:18:57;;;;;;;1.48;1.40;;;18.90;58.00;;;;;;4983641;28;20050;-14
2022/03/23 10:21:23;;;;;;;;;;;18.90;58.10;;;;;;4983265;28;20062;-13
2022/03/23 10:24:00;;;;;;;1.95;1.60;;;18.90;58.20;;;;;;4982183;28;20417;-13
2022/03/23 10:26:26;;;;;;;1.75;1.65;;;18.90;58.10;;;;;;4983283;28;20164;-13
2022/03/23 10:28:52;;;;;;;1.55;1.45;;;18.90;58.10;;;;;;4983421;28;20061;-14
2022/03/23 10:31:22;;;;;;;1.90;1.80;;;18.90;58.10;;;;;;4981968;28;20129;-14
2022/03/23 10:34:09;;;;;;;1.70;1.60;;;18.90;58.10;;;;;;4981996;28;20419;-14
2022/03/23 10:36:38;;;;;;;1.50;1.40;;;18.90;58.10;;;;;;4982595;28;20900;-13
2022/03/23 10:39:05;;;;;;;1.27;1.27;;;18.90;58.20;;;;;;4981672;28;20149;-14
2022/03/23 10:41:31;;;;;;;1.55;1.45;;;18.90;58.20;;;;;;4983934;28;20057;-13
2022/03/23 10:43:57;;;;;;;1.77;1.67;;;18.90;58.00;;;;;;4981276;28;20058;-13
2022/03/23 10:46:22;;;;;;;1.30;1.30;;;18.90;58.10;;;;;;4980859;28;20051;-14
2022/03/23 10:49:03;;;;;;;2.20;1.60;;;18.90;58.90;;;;;;4981873;28;20046;-14
2022/03/23 10:51:35;;;;;;;1.60;1.50;;;18.90;58.00;;;;;;4975615;28;20050;-13
2022/03/23 10:54:23;;;;;;;1.40;1.40;;;19.00;58.10;;;;;;4979344;28;20057;-14
2022/03/23 10:56:49;;;;;;;1.38;1.27;;;19.00;57.90;;;;;;4982670;28;20057;-13
2022/03/23 10:59:26;;;;;;;1.38;1.27;;;19.00;57.70;;;;;;4982773;28;20054;-13
2022/03/23 11:01:59;;;;;;;4.63;1.50;;;19.00;57.80;;;;;;4983350;28;20050;-13
2022/03/23 11:04:28;;;;;;;2.28;1.50;;;18.90;58.10;;;;;;4980356;28;20082;-13
2022/03/23 11:06:58;;;;;;;2.65;1.70;;;18.90;58.10;;;;;;4975219;28;20073;-13
2022/03/23 11:18:06;;;;;;;1.50;1.40;;;19.00;58.00;;;;;;4979575;28;20092;-13
2022/03/23 11:20:53;;;;;;;1.45;1.30;;;19.10;57.80;;;;;;4978661;28;20628;-14
2022/03/23 11:23:24;;;;;;;1.50;1.40;;;19.10;57.80;;;;;;4976935;28;20054;-14
2022/03/23 11:26:10;;;;;;;1.05;1.05;;;19.10;57.70;;;;;;4977144;28;20590;-14
2022/03/23 11:28:44;;;;;;;1.67;1.45;;;19.20;57.70;;;;;;4979953;28;20640;-14
2022/03/23 11:31:13;;;;;;;2.15;1.38;;;19.20;57.70;;;;;;4979753;28;20105;-13
2022/03/23 11:33:39;;;;;;;1.50;1.40;;;19.20;57.70;;;;;;4977233;28;20042;-13
2022/03/23 11:36:08;;;;;;;1.42;1.33;;;19.20;57.70;;;;;;4979314;28;20058;-13
2022/03/23 11:38:33;;;;;;;1.88;1.63;;;19.20;57.80;;;;;;4979366;28;20132;-12
2022/03/23 11:40:59;;;;;;;1.58;1.48;;;19.30;57.90;;;;;;4979074;28;20153;-12
2022/03/23 11:43:26;;;;;;;2.65;1.50;;;19.30;57.80;;;;;;4978135;28;20053;-13
2022/03/23 11:45:53;;;;;;;1.38;1.38;;;19.20;57.70;;;;;;4978742;28;20061;-12
2022/03/23 11:48:19;;;;;;;1.38;1.30;;;19.20;57.70;;;;;;4979683;28;20064;-13
2022/03/23 11:51:13;;;;;;;1.50;1.50;;;19.20;57.50;;;;;;4634611;28;10000230;-13
2022/03/23 11:53:51;;;;;;;;;;;19.30;56.70;;;;;;4982075;28;20050;-16
2022/03/23 11:56:26;;;;;;;1.55;1.45;;;19.30;56.30;;;;;;4981826;28;19926;-12
2022/03/23 11:58:52;;;;;;;1.70;1.60;;;19.30;56.60;;;;;;4981725;28;20053;-14
2022/03/23 12:01:18;;;;;;;2.60;1.35;;;19.30;56.60;;;;;;4981157;28;20066;-12
2022/03/23 12:03:43;;;;;;;1.92;1.75;;;19.20;56.50;;;;;;4980234;28;20070;-13
2022/03/23 12:06:13;;;;;;;2.88;1.85;;;19.30;56.00;;;;;;4981191;28;20074;-12
2022/03/23 12:08:49;;;;;;;2.92;2.03;;;19.30;56.20;;;;;;4981584;28;20050;-13
2022/03/23 12:11:35;;;;;;;2.25;1.75;;;19.20;55.30;;;;;;4986023;28;20057;-13
2022/03/23 12:14:06;;;;;;;1.83;1.70;;;19.30;55.20;;;;;;4987786;28;20456;-12
2022/03/23 12:17:07;;;;;;;3.92;2.10;;;19.30;55.00;;;;;;4979287;28;20236;-13
2022/03/23 12:19:59;;;;;;;2.00;1.90;;;19.20;55.20;;;;;;4983271;28;20216;-14
2022/03/23 12:22:34;;;;;;;2.03;1.92;;;19.20;55.00;;;;;;4990408;28;20633;-13
2022/03/23 12:25:35;;;;;;;2.90;2.50;;;19.20;54.80;;;;;;4997702;28;20058;-12
2022/03/23 12:28:26;;;;;;;2.30;2.20;;;19.20;54.50;;;;;;4998040;28;20147;-13
2022/03/23 12:30:57;;;;;;;2.00;1.90;;;19.20;54.20;;;;;;4991399;28;20046;-12
2022/03/23 12:33:25;;;;;;;1.92;1.83;;;19.20;54.00;;;;;;4991385;28;20042;-13
2022/03/23 12:35:50;;;;;;;2.30;2.20;;;19.20;53.70;;;;;;4996181;28;20046;-13
2022/03/23 12:38:28;;;;;;;2.20;2.10;;;19.20;53.80;;;;;;4988988;28;20137;-14
2022/03/23 12:40:56;;;;;;;2.00;1.90;;;19.20;53.50;;;;;;4992840;28;20625;-14
2022/03/23 12:43:43;;;;;;;2.10;2.00;;;19.20;53.40;;;;;;4993570;28;20042;-12
2022/03/23 12:46:24;;;;;;;2.88;2.20;;;19.20;53.00;;;;;;4991996;28;20054;-14
2022/03/23 12:57:53;;;;;;;1.92;1.80;;;19.20;54.10;;;;;;4988917;28;20081;-12
2022/03/23 13:00:30;;;;;;;2.20;2.10;;;19.20;54.20;;;;;;4988280;28;20046;-14
2022/03/23 13:03:05;;;;;;;2.20;2.10;;;19.20;54.40;;;;;;4643037;28;10000000;-13
2022/03/23 13:05:34;;;;;;;1.90;1.80;;;19.20;54.40;;;;;;4991202;28;20085;-13
2022/03/23 13:07:59;;;;;;;1.95;1.85;;;19.20;54.00;;;;;;4988007;28;20064;-13
2022/03/23 13:10:25;;;;;;;2.25;2.15;;;19.30;54.30;;;;;;4985733;28;20703;-13
2022/03/23 13:12:51;;;;;;;4.05;2.10;;;19.30;54.20;;;;;;4986669;28;20457;-16
2022/03/23 13:15:18;;;;;;;3.05;1.95;;;19.30;54.50;;;;;;4988688;28;20101;-15
2022/03/23 13:17:45;;;;;;;1.80;1.70;;;19.30;55.00;;;;;;4987812;28;20062;-13
2022/03/23 13:20:13;;;;;;;2.03;1.92;;;19.30;55.10;;;;;;4982512;28;20043;-14
2022/03/23 13:22:39;;;;;;;1.95;1.85;;;19.30;55.40;;;;;;4985699;28;20053;-14